Time;durP1;ratioP1;P1;durP2;ratioP2;P2;SDS_P1;SDS_P2;PMS_P1;PMS_P2;Temp;Humidity;BMP_temperature;BMP_pressure;BME280_temperature;BME280_humidity;BME280_pressure;Samples;Min_cycle;Max_cycle;Signal;HPM_P1;HPM_P2
2021/12/07 00:01:56;;;;;;;24.35;10.15;;;;;;;2.15;64.05;97985.19;4486767;32;20088;-80
2021/12/07 00:04:22;;;;;;;27.05;10.88;;;;;;;2.51;63.31;97982.25;4486330;32;20141;-79
2021/12/07 00:06:47;;;;;;;24.58;10.45;;;;;;;2.05;64.40;97982.94;4486497;32;20100;-81
2021/12/07 00:09:15;;;;;;;25.42;11.05;;;;;;;2.30;63.98;97973.44;4472318;32;20123;-81
2021/12/07 00:11:41;;;;;;;28.33;11.20;;;;;;;1.73;65.83;97980.50;4486524;32;20092;-80
2021/12/07 00:14:15;;;;;;;25.30;10.10;;;;;;;2.20;64.40;97987.63;4471981;32;20130;-79
2021/12/07 00:16:42;;;;;;;23.77;9.57;;;;;;;2.03;64.84;97980.41;4473173;32;20104;-80
2021/12/07 00:19:08;;;;;;;24.93;9.90;;;;;;;2.22;64.41;97982.38;4488383;32;20141;-81
2021/12/07 00:21:34;;;;;;;24.35;10.10;;;;;;;2.00;64.76;97975.31;4488314;32;20524;-81
2021/12/07 00:23:59;;;;;;;25.73;10.65;;;;;;;2.02;64.62;97975.25;4488136;32;20128;-80
2021/12/07 00:26:25;;;;;;;22.33;9.43;;;;;;;2.11;64.75;97977.56;4488047;32;20084;-80
2021/12/07 00:28:51;;;;;;;23.65;10.60;;;;;;;2.06;64.97;97976.84;4487707;32;20432;-81
2021/12/07 00:31:30;;;;;;;26.20;11.15;;;;;;;2.31;64.20;97987.28;4488081;32;20096;-80
2021/12/07 00:36:42;;;;;;;26.27;11.00;;;;;;;2.28;63.91;97997.75;4488186;32;20076;-81
2021/12/07 00:39:08;;;;;;;26.83;10.32;;;;;;;2.64;62.95;97992.19;4473590;32;20080;-82
2021/12/07 00:41:34;;;;;;;24.52;10.93;;;;;;;2.69;62.95;97992.91;4488129;32;20093;-82
2021/12/07 00:44:01;;;;;;;24.00;9.93;;;;;;;2.83;62.47;97984.59;4473694;32;20148;-80
2021/12/07 00:46:27;;;;;;;26.67;11.02;;;;;;;2.92;62.52;97979.91;4487487;31;20080;-81
2021/12/07 00:48:53;;;;;;;26.42;10.93;;;;;;;2.79;62.74;97985.62;4487832;32;20114;-82
2021/12/07 00:51:18;;;;;;;25.65;10.20;;;;;;;3.12;61.37;97983.50;4487290;31;20529;-81
2021/12/07 00:53:44;;;;;;;24.60;10.38;;;;;;;3.04;61.60;97977.75;4473747;32;20122;-82
2021/12/07 00:56:10;;;;;;;26.33;10.38;;;;;;;2.88;62.00;97980.94;4487986;32;20149;-81
2021/12/07 00:58:36;;;;;;;25.65;11.07;;;;;;;2.77;62.04;97988.25;4473725;32;20080;-81
2021/12/07 01:01:10;;;;;;;24.23;10.10;;;;;;;2.64;62.54;97987.84;4487696;32;20122;-81
2021/12/07 01:03:36;;;;;;;25.52;10.68;;;;;;;2.97;61.90;97981.47;4487633;32;20161;-81
2021/12/07 01:25:05;;;;;;;26.00;10.88;;;;;;;3.21;61.20;97958.91;4487757;32;20157;-80
2021/12/07 01:27:30;;;;;;;27.13;12.00;;;;;;;3.20;61.44;97965.00;4485582;32;20080;-81
2021/12/07 01:30:12;;;;;;;24.80;10.85;;;;;;;2.93;61.45;97954.72;4487442;31;20076;-80
2021/12/07 01:59:35;;;;;;;28.15;11.18;;;;;;;3.34;61.03;97957.50;4438501;32;20371;-83
2021/12/07 02:02:11;;;;;;;27.95;10.93;;;;;;;3.42;60.53;97957.22;4427370;32;20213;-83
2021/12/07 02:04:38;;;;;;;25.33;10.80;;;;;;;3.00;61.45;97952.75;4438593;32;20270;-83
2021/12/07 02:07:05;;;;;;;25.92;11.35;;;;;;;3.19;61.55;97960.69;4438345;32;20093;-83
2021/12/07 02:09:33;;;;;;;24.17;10.97;;;;;;;3.28;61.27;97958.63;4438576;32;20484;-83
2021/12/07 02:12:00;;;;;;;27.13;11.07;;;;;;;3.50;60.65;97963.00;4438510;32;20725;-83
2021/12/07 02:14:27;;;;;;;26.48;10.73;;;;;;;3.57;60.47;97959.22;4438390;32;20167;-83
2021/12/07 02:17:09;;;;;;;25.12;10.82;;;;;;;3.40;60.92;97956.44;4425672;32;20112;-83
2021/12/07 02:19:35;;;;;;;27.73;11.10;;;;;;;3.48;60.60;97952.63;4425584;32;20519;-82
2021/12/07 02:22:00;;;;;;;25.42;10.95;;;;;;;3.47;60.37;97947.47;4438402;32;20077;-81
2021/12/07 02:24:27;;;;;;;29.27;11.82;;;;;;;3.51;60.10;97949.03;4425470;32;20160;-81
2021/12/07 02:26:52;;;;;;;23.70;10.25;;;;;;;3.48;60.39;97944.81;4438391;32;20162;-82
2021/12/07 02:29:19;;;;;;;25.05;11.12;;;;;;;3.49;60.20;97945.66;4438391;32;20654;-81
2021/12/07 02:31:45;;;;;;;25.73;10.68;;;;;;;3.60;59.74;97940.88;4438398;32;20591;-82
2021/12/07 02:34:12;;;;;;;28.35;10.23;;;;;;;3.61;59.85;97941.72;4493902;31;20471;-83
2021/12/07 02:36:37;;;;;;;23.80;10.02;;;;;;;3.52;60.16;97940.34;4503447;31;20118;-81
2021/12/07 02:39:07;;;;;;;25.73;10.45;;;;;;;3.60;59.89;97938.28;4488714;31;20080;-82
2021/12/07 02:41:33;;;;;;;25.37;10.55;;;;;;;3.61;60.02;97934.78;4488824;31;20084;-82
2021/12/07 02:43:58;;;;;;;25.02;11.52;;;;;;;3.52;60.35;97945.53;4503367;31;20123;-82
2021/12/07 02:46:24;;;;;;;27.62;11.95;;;;;;;3.29;60.47;97939.47;4503122;31;20148;-82
2021/12/07 02:48:49;;;;;;;24.90;10.98;;;;;;;3.45;60.26;97939.72;4488906;31;20111;-82
2021/12/07 02:51:15;;;;;;;28.92;12.45;;;;;;;3.02;61.25;97938.78;4503317;31;20089;-82
2021/12/07 02:53:40;;;;;;;25.20;10.48;;;;;;;3.24;61.04;97937.97;4503221;31;20364;-82
2021/12/07 02:56:08;;;;;;;27.98;11.65;;;;;;;3.42;60.33;97934.66;4503295;31;20117;-82
2021/12/07 02:58:35;;;;;;;25.02;11.20;;;;;;;3.32;60.74;97926.34;4488845;31;20110;-82
2021/12/07 03:01:15;;;;;;;25.77;11.48;;;;;;;3.26;61.06;97926.56;4503199;31;20118;-82
2021/12/07 03:03:53;;;;;;;27.50;12.20;;;;;;;3.15;61.44;97923.56;4490316;31;20127;-82
2021/12/07 03:06:27;;;;;;;26.37;11.48;;;;;;;2.99;61.94;97922.44;4490373;31;20510;-82
2021/12/07 03:28:05;;;;;;;29.75;11.77;;;;;;;2.93;62.23;97926.94;4469043;32;20244;-81
2021/12/07 03:30:30;;;;;;;28.75;12.13;;;;;;;3.01;61.89;97920.63;4455979;32;20109;-81
2021/12/07 03:32:56;;;;;;;27.58;11.90;;;;;;;2.81;62.37;97927.41;4455814;32;20353;-82
2021/12/07 03:35:21;;;;;;;27.35;11.63;;;;;;;2.69;62.77;97939.12;4468834;32;20191;-82
2021/12/07 03:37:47;;;;;;;30.20;12.25;;;;;;;2.87;62.25;97934.16;4456013;32;20132;-81
2021/12/07 03:40:12;;;;;;;27.65;12.60;;;;;;;2.88;62.28;97936.69;4468929;32;20112;-82
2021/12/07 03:42:39;;;;;;;27.02;12.18;;;;;;;2.91;62.14;97931.38;4455728;32;20135;-81
2021/12/07 03:45:06;;;;;;;30.98;11.98;;;;;;;2.98;61.98;97925.97;4468681;32;20096;-81
2021/12/07 03:47:31;;;;;;;27.40;12.45;;;;;;;3.03;61.58;97929.22;4468834;32;20478;-82
2021/12/07 03:49:57;;;;;;;27.17;11.88;;;;;;;2.84;62.17;97922.13;4501266;31;20136;-81
2021/12/07 03:52:22;;;;;;;31.20;12.70;;;;;;;2.92;62.29;97922.66;4488000;31;20080;-81
2021/12/07 03:54:48;;;;;;;29.17;12.70;;;;;;;2.90;62.12;97921.88;4502400;31;20157;-81
2021/12/07 03:57:14;;;;;;;30.12;12.60;;;;;;;3.03;61.74;97929.22;4488125;31;20478;-81
2021/12/07 03:59:40;;;;;;;29.98;12.55;;;;;;;2.89;62.22;97924.53;4502364;31;20362;-81
2021/12/07 04:02:07;;;;;;;26.87;12.30;;;;;;;2.74;62.42;97925.94;4488008;31;20076;-81
2021/12/07 04:04:33;;;;;;;27.90;12.23;;;;;;;3.08;61.70;97935.09;4502397;31;20156;-81
2021/12/07 04:06:59;;;;;;;31.25;13.40;;;;;;;2.98;62.08;97945.00;4487872;31;20088;-82
2021/12/07 04:09:24;;;;;;;31.98;13.80;;;;;;;2.67;62.60;97942.69;4502227;31;20122;-82
2021/12/07 04:11:50;;;;;;;29.80;12.02;;;;;;;2.84;62.19;97942.94;4487890;31;20462;-82
2021/12/07 04:14:15;;;;;;;30.85;12.90;;;;;;;2.78;62.44;97937.94;4502066;31;20111;-82
2021/12/07 04:16:41;;;;;;;28.83;12.43;;;;;;;2.95;61.94;97934.69;4487691;31;20176;-81
2021/12/07 04:19:06;;;;;;;31.92;13.60;;;;;;;2.79;61.88;97929.22;4502055;31;20076;-82
2021/12/07 04:21:32;;;;;;;28.17;12.25;;;;;;;2.51;62.91;97937.19;4501977;31;20088;-83
2021/12/07 04:23:57;;;;;;;25.70;11.23;;;;;;;2.47;63.07;97936.47;4502091;31;20352;-83
2021/12/07 04:26:24;;;;;;;29.63;12.65;;;;;;;2.53;63.12;97935.37;4487505;31;20374;-83
2021/12/07 04:28:50;;;;;;;30.12;12.40;;;;;;;2.28;63.98;97935.37;4487612;31;20110;-83
2021/12/07 04:31:15;;;;;;;32.67;13.43;;;;;;;2.35;63.51;97942.91;4487630;31;20072;-83
2021/12/07 04:33:41;;;;;;;31.30;13.10;;;;;;;2.51;63.12;97942.37;4501895;31;20119;-82
2021/12/07 04:36:08;;;;;;;32.25;13.70;;;;;;;2.46;63.17;97952.09;4502023;31;20118;-82
2021/12/07 04:38:33;;;;;;;27.73;11.65;;;;;;;2.40;63.61;97947.97;4501867;31;20150;-82
2021/12/07 04:40:59;;;;;;;33.55;13.32;;;;;;;2.41;63.48;97949.66;4487532;31;20414;-82
2021/12/07 04:43:24;;;;;;;31.92;13.13;;;;;;;2.24;63.73;97962.38;4501689;31;20114;-82
2021/12/07 04:46:00;;;;;;;31.27;12.40;;;;;;;2.68;62.62;97958.22;4501525;31;20118;-83
2021/12/07 04:59:22;;;;;;;28.65;11.82;;;;;;;2.51;62.89;97953.66;4489488;31;20166;-82
2021/12/07 05:01:47;;;;;;;29.17;12.13;;;;;;;2.24;63.28;97958.06;4502501;31;20092;-82
2021/12/07 05:04:18;;;;;;;27.98;11.65;;;;;;;2.39;62.88;97968.81;4489399;31;20368;-82
2021/12/07 05:06:50;;;;;;;30.92;12.80;;;;;;;2.45;62.64;97969.44;4503716;31;20111;-82
2021/12/07 05:14:37;;;;;;;32.10;12.68;;;;;;;2.47;62.32;97982.38;4503742;31;20124;-82
2021/12/07 05:38:50;;;;;;;30.12;12.90;;;;;;;2.77;61.83;97974.41;4454147;32;20139;-82
2021/12/07 05:41:16;;;;;;;30.05;13.00;;;;;;;3.03;61.27;97970.84;4454141;32;20113;-81
2021/12/07 05:43:41;;;;;;;27.85;11.48;;;;;;;2.98;60.99;97973.63;4441035;32;20128;-81
2021/12/07 05:46:07;;;;;;;30.37;12.30;;;;;;;3.10;60.64;97974.91;4453917;32;20104;-80
2021/12/07 05:48:32;;;;;;;29.90;11.90;;;;;;;3.06;60.85;97968.13;4454130;32;20113;-81
2021/12/07 05:50:58;;;;;;;29.92;11.35;;;;;;;3.10;60.49;97961.91;4454030;32;20139;-81
2021/12/07 05:53:24;;;;;;;28.98;11.98;;;;;;;3.05;60.60;97962.09;4454074;32;20650;-81
2021/12/07 05:55:50;;;;;;;27.23;12.25;;;;;;;2.96;60.88;97959.84;4453980;32;20116;-82
2021/12/07 05:58:15;;;;;;;26.60;11.12;;;;;;;2.80;61.57;97961.28;4441079;32;20116;-82
2021/12/07 06:00:44;;;;;;;30.52;12.02;;;;;;;2.90;61.20;97958.31;4454169;32;20116;-80
2021/12/07 06:03:10;;;;;;;28.95;12.07;;;;;;;2.70;61.50;97956.41;4441522;32;20120;-82
2021/12/07 06:05:40;;;;;;;29.83;12.57;;;;;;;2.99;60.64;97954.50;4478439;31;20104;-82
2021/12/07 06:08:07;;;;;;;27.52;11.35;;;;;;;2.80;61.47;97961.28;4488961;31;20159;-81
2021/12/07 06:10:33;;;;;;;28.40;11.90;;;;;;;2.75;61.30;97958.87;4503344;31;20084;-81
2021/12/07 06:12:58;;;;;;;31.33;12.77;;;;;;;2.72;61.76;97952.03;4503083;31;20106;-80
2021/12/07 06:15:26;;;;;;;29.12;11.12;;;;;;;3.05;60.75;97962.09;4489030;31;20100;-80
2021/12/07 06:17:52;;;;;;;;;;;;;;;3.10;60.64;97954.94;4485470;32;20108;-80
2021/12/07 06:20:18;;;;;;;29.37;11.57;;;;;;;3.06;61.06;97955.97;4501291;31;19982;-79
2021/12/07 06:22:43;;;;;;;29.20;11.65;;;;;;;3.09;61.04;97955.00;4488790;31;20565;-81
2021/12/07 06:25:10;;;;;;;31.10;12.55;;;;;;;2.88;61.36;97961.88;4503212;31;20128;-80
2021/12/07 06:27:37;;;;;;;28.90;11.73;;;;;;;2.97;60.99;97953.69;4503107;31;20115;-81
2021/12/07 06:30:03;;;;;;;31.90;13.15;;;;;;;3.01;60.84;97960.47;4503150;31;20476;-80
2021/12/07 06:32:28;;;;;;;30.80;12.05;;;;;;;2.91;61.38;97959.97;4503109;31;20080;-78
2021/12/07 06:34:54;;;;;;;32.47;12.73;;;;;;;3.02;61.07;97962.19;4488716;31;20126;-78
2021/12/07 06:37:19;;;;;;;33.10;12.75;;;;;;;3.01;61.15;97964.84;4503172;31;20091;-77
2021/12/07 06:39:45;;;;;;;31.55;13.43;;;;;;;2.84;61.35;97966.34;4502959;31;20122;-78
2021/12/07 06:42:11;;;;;;;30.12;12.52;;;;;;;2.79;61.64;97970.84;4502822;31;20076;-78
2021/12/07 06:44:36;;;;;;;31.52;12.10;;;;;;;2.70;61.83;97976.38;4502965;31;20120;-78
2021/12/07 06:47:02;;;;;;;28.12;11.68;;;;;;;2.80;61.93;97969.09;4502849;31;20107;-78
2021/12/07 06:49:27;;;;;;;32.25;12.40;;;;;;;2.49;62.62;97973.66;4488671;31;20083;-76
2021/12/07 06:51:53;;;;;;;28.38;12.05;;;;;;;2.67;62.02;97973.91;4502915;31;20744;-77
2021/12/07 06:54:18;;;;;;;30.83;12.15;;;;;;;2.54;62.15;97976.06;4502951;31;20510;-77
2021/12/07 06:56:44;;;;;;;31.62;12.00;;;;;;;2.61;62.75;97976.69;4502995;31;20092;-77
2021/12/07 06:59:09;;;;;;;30.42;11.95;;;;;;;2.84;61.93;97979.34;4488662;31;20106;-76
2021/12/07 07:01:35;;;;;;;30.08;12.35;;;;;;;2.80;62.06;97977.75;4502843;31;20107;-76
2021/12/07 07:04:00;;;;;;;31.35;12.65;;;;;;;2.95;61.56;97966.78;4502476;31;20455;-75
2021/12/07 07:06:26;;;;;;;28.27;11.90;;;;;;;3.12;61.08;97970.50;4502534;31;20431;-76
2021/12/07 07:08:52;;;;;;;31.10;11.95;;;;;;;3.23;60.25;97975.31;4488254;31;20113;-76
2021/12/07 07:11:18;;;;;;;33.03;13.13;;;;;;;3.08;60.72;97968.94;4502351;31;20084;-76
2021/12/07 07:13:45;;;;;;;28.55;11.07;;;;;;;3.12;60.71;97978.31;4488627;31;20136;-77
2021/12/07 07:16:11;;;;;;;30.65;11.68;;;;;;;2.85;61.04;97973.22;4488693;31;20497;-75
2021/12/07 07:18:36;;;;;;;30.98;11.75;;;;;;;2.85;61.27;97981.03;4488077;31;20110;-76
2021/12/07 07:21:03;;;;;;;29.25;11.88;;;;;;;2.79;61.66;97983.00;4502671;31;20084;-75
2021/12/07 07:23:29;;;;;;;31.17;12.25;;;;;;;2.63;61.72;97980.13;4488758;31;20104;-76
2021/12/07 07:25:55;;;;;;;31.90;11.95;;;;;;;2.69;61.82;97985.09;4501737;31;20080;-76
2021/12/07 07:28:26;;;;;;;30.02;11.25;;;;;;;2.56;62.38;97985.50;4488778;31;20126;-77
2021/12/07 07:30:52;;;;;;;29.80;11.70;;;;;;;2.55;62.37;97980.38;4502645;31;20118;-77
2021/12/07 07:33:17;;;;;;;33.10;12.30;;;;;;;2.35;62.81;97989.69;4502748;31;20440;-78
2021/12/07 07:35:42;;;;;;;29.90;12.13;;;;;;;2.65;62.00;97994.75;4488313;31;20113;-78
2021/12/07 07:38:08;;;;;;;31.65;12.35;;;;;;;2.81;61.64;98002.00;4502462;31;20423;-80
2021/12/07 07:40:33;;;;;;;32.97;12.37;;;;;;;2.71;61.61;97994.53;4488056;31;20116;-80
2021/12/07 07:42:59;;;;;;;29.00;12.37;;;;;;;2.65;61.75;97994.75;4487957;31;20120;-76
2021/12/07 07:45:24;;;;;;;30.37;11.63;;;;;;;2.91;61.20;97987.75;4502304;31;20156;-78
2021/12/07 07:47:50;;;;;;;32.00;12.90;;;;;;;2.83;61.06;97998.44;4502475;31;20136;-77
2021/12/07 07:50:15;;;;;;;32.22;13.02;;;;;;;2.97;60.95;97999.69;4502556;31;20080;-77
2021/12/07 07:52:41;;;;;;;29.10;12.32;;;;;;;2.98;60.71;98002.25;4476500;31;20101;-75
2021/12/07 07:55:07;;;;;;;30.80;11.48;;;;;;;3.04;60.61;98002.03;4492591;31;20127;-76
2021/12/07 07:57:33;;;;;;;29.75;11.80;;;;;;;3.05;60.81;98000.25;4481535;31;20079;-76
2021/12/07 07:59:58;;;;;;;29.23;12.13;;;;;;;3.29;59.90;98001.94;4488384;31;20564;-77
2021/12/07 08:02:24;;;;;;;29.05;11.10;;;;;;;3.26;59.72;98001.22;4497790;31;20434;-78
2021/12/07 08:04:49;;;;;;;29.75;11.90;;;;;;;3.22;59.95;98000.47;4486386;32;20106;-78
2021/12/07 08:07:15;;;;;;;27.83;11.18;;;;;;;3.42;59.16;98002.34;4486383;32;20107;-78
2021/12/07 08:09:41;;;;;;;27.10;10.65;;;;;;;3.30;59.51;98008.88;4486275;32;20215;-77
2021/12/07 08:12:07;;;;;;;28.17;11.65;;;;;;;3.22;59.96;98010.88;4472002;32;20182;-78
2021/12/07 08:14:34;;;;;;;32.58;12.10;;;;;;;3.52;58.97;98011.50;4472020;32;20126;-79
2021/12/07 08:17:00;;;;;;;31.70;12.15;;;;;;;3.51;58.51;98016.75;4472174;32;20083;-79
2021/12/07 08:19:25;;;;;;;31.35;11.63;;;;;;;3.60;58.69;98013.78;4459065;32;20099;-79
2021/12/07 08:21:50;;;;;;;30.05;11.93;;;;;;;3.66;58.92;98015.31;4472009;32;20100;-80
2021/12/07 08:24:16;;;;;;;30.20;13.38;;;;;;;3.62;58.90;98011.13;4486365;32;20428;-80
2021/12/07 08:26:42;;;;;;;28.30;11.52;;;;;;;3.79;58.22;98015.69;4471903;32;20080;-80
2021/12/07 08:29:07;;;;;;;27.23;11.10;;;;;;;3.84;58.15;98018.94;4472144;32;20149;-80
2021/12/07 08:31:33;;;;;;;29.95;11.55;;;;;;;3.96;57.69;98022.81;4486352;32;20110;-80
2021/12/07 08:34:00;;;;;;;29.98;12.10;;;;;;;4.08;57.45;98014.53;4486023;32;20088;-80
2021/12/07 08:36:26;;;;;;;32.60;12.02;;;;;;;4.12;57.46;98016.09;4473010;32;20356;-80
2021/12/07 08:38:52;;;;;;;28.98;11.82;;;;;;;4.16;57.29;98017.66;4488330;32;20107;-80
2021/12/07 08:41:17;;;;;;;33.20;12.82;;;;;;;4.25;57.11;98021.63;4488299;32;20092;-80
2021/12/07 08:43:43;;;;;;;27.48;12.63;;;;;;;4.23;57.01;98018.25;4474104;32;20092;-80
2021/12/07 08:46:11;;;;;;;28.80;11.85;;;;;;;4.27;56.76;98015.47;4473881;32;20402;-79
2021/12/07 08:48:36;;;;;;;29.37;12.18;;;;;;;4.12;57.05;98016.09;4461182;32;20106;-80
2021/12/07 08:51:04;;;;;;;34.28;13.50;;;;;;;3.99;57.51;98007.06;4474034;32;20383;-80
2021/12/07 08:53:30;;;;;;;;;;;;;;;3.64;58.65;98017.97;4488552;32;20135;-80
2021/12/07 09:01:28;;;;;;;31.58;11.63;;;;;;;3.82;58.63;98010.34;4488076;32;20270;-79
2021/12/07 09:03:55;;;;;;;28.45;12.13;;;;;;;3.51;59.31;98003.72;4487998;32;20088;-80
2021/12/07 09:06:20;;;;;;;30.50;12.47;;;;;;;3.65;59.09;98009.25;4473678;32;20127;-80
2021/12/07 09:08:46;;;;;;;32.13;12.57;;;;;;;3.68;58.85;98001.31;4473771;32;20152;-80
2021/12/07 09:11:13;;;;;;;30.55;11.85;;;;;;;3.75;58.59;97996.72;4487873;32;20104;-80
2021/12/07 09:13:39;;;;;;;28.87;12.27;;;;;;;3.80;58.92;97999.97;4460890;32;20202;-79
2021/12/07 09:16:05;;;;;;;32.20;13.60;;;;;;;3.90;58.70;97992.62;4460870;32;20630;-80
2021/12/07 09:18:31;;;;;;;32.03;12.43;;;;;;;3.56;59.70;98007.00;4487852;32;20116;-80
2021/12/07 09:20:58;;;;;;;30.60;12.65;;;;;;;3.77;58.83;97997.50;4487879;32;20119;-79
2021/12/07 09:23:24;;;;;;;27.42;11.20;;;;;;;4.07;58.38;97995.41;4473646;32;20518;-80
2021/12/07 09:25:50;;;;;;;33.15;11.88;;;;;;;3.77;58.95;97999.25;4473541;32;20087;-80
2021/12/07 09:28:15;;;;;;;28.27;12.65;;;;;;;4.05;58.50;97991.19;4487759;32;20092;-80
2021/12/07 09:30:41;;;;;;;27.20;12.65;;;;;;;4.36;57.76;97984.69;4487766;32;20092;-79
2021/12/07 09:33:07;;;;;;;29.83;13.18;;;;;;;4.28;57.76;97985.84;4487773;32;20505;-80
2021/12/07 09:35:33;;;;;;;31.55;12.50;;;;;;;4.39;57.78;97977.59;4487912;32;20111;-80
2021/12/07 09:37:59;;;;;;;29.50;12.27;;;;;;;4.22;57.91;97980.06;4487802;32;20182;-80
2021/12/07 09:40:28;;;;;;;29.67;12.25;;;;;;;4.31;57.81;97974.47;4487999;32;20119;-80
2021/12/07 09:42:55;;;;;;;31.30;12.55;;;;;;;4.01;58.39;97966.16;4488071;32;20088;-80
2021/12/07 09:45:20;;;;;;;31.12;12.75;;;;;;;4.17;58.21;97969.81;4473521;32;20168;-80
2021/12/07 09:47:47;;;;;;;29.08;11.82;;;;;;;4.23;58.14;97971.31;4487323;32;20136;-80
2021/12/07 09:50:16;;;;;;;28.65;11.70;;;;;;;4.20;58.34;97968.84;4473750;32;20798;-80
2021/12/07 09:52:44;;;;;;;29.45;11.60;;;;;;;4.57;57.30;97965.50;4473704;32;20100;-80
2021/12/07 09:55:09;;;;;;;28.30;11.80;;;;;;;4.62;56.99;97963.56;4487823;32;20088;-80
2021/12/07 09:57:35;;;;;;;27.50;11.32;;;;;;;4.59;57.21;97957.63;4473542;32;20102;-80
2021/12/07 10:00:01;;;;;;;30.65;11.85;;;;;;;4.59;57.12;97952.41;4487906;32;20115;-80
2021/12/07 10:02:26;;;;;;;29.00;11.00;;;;;;;4.69;56.70;97951.06;4473381;32;20168;-80
2021/12/07 10:04:52;;;;;;;30.50;11.90;;;;;;;4.58;57.29;97954.19;4487512;32;20444;-79
2021/12/07 10:07:18;;;;;;;26.70;11.15;;;;;;;4.61;57.35;97954.03;4487334;32;20079;-80
2021/12/07 10:09:43;;;;;;;29.10;10.80;;;;;;;4.77;56.66;97946.38;4487355;32;20376;-80
2021/12/07 10:12:17;;;;;;;26.90;11.35;;;;;;;4.67;56.72;97947.69;4473338;32;20132;-80
2021/12/07 10:14:43;;;;;;;29.25;11.52;;;;;;;4.78;56.54;97950.69;4487469;32;20167;-80
2021/12/07 10:17:10;;;;;;;27.83;11.63;;;;;;;4.57;57.17;97947.25;4487432;32;20163;-80
2021/12/07 10:19:37;;;;;;;26.17;10.88;;;;;;;4.73;57.21;97947.41;4473433;32;20092;-80
2021/12/07 10:22:07;;;;;;;27.02;11.00;;;;;;;4.90;56.59;97936.22;4460481;32;20104;-80
2021/12/07 10:24:42;;;;;;;27.50;10.88;;;;;;;5.13;56.03;97932.56;4487522;32;20159;-80
2021/12/07 10:27:08;;;;;;;26.87;10.82;;;;;;;5.17;55.67;97931.50;4487305;32;20084;-80
2021/12/07 10:29:35;;;;;;;28.02;10.90;;;;;;;5.01;55.80;97925.31;4487482;32;20119;-80
2021/12/07 10:32:05;;;;;;;29.15;11.45;;;;;;;5.23;55.55;97930.38;4473064;32;20119;-80
2021/12/07 10:34:35;;;;;;;28.08;11.27;;;;;;;5.15;55.58;97932.50;4473373;32;20118;-80
2021/12/07 10:37:15;;;;;;;25.83;11.32;;;;;;;4.81;56.24;97927.06;4487377;32;20084;-80
2021/12/07 10:39:51;;;;;;;27.77;11.50;;;;;;;5.41;54.68;97924.28;4487339;32;20107;-80
2021/12/07 10:42:25;;;;;;;27.42;10.85;;;;;;;5.43;54.61;97926.84;4487391;32;20111;-80
2021/12/07 10:44:51;;;;;;;26.87;10.98;;;;;;;5.63;54.15;97921.50;4473461;32;20119;-80
2021/12/07 10:47:19;;;;;;;29.30;11.10;;;;;;;5.77;53.83;97919.97;4473053;32;20093;-80
2021/12/07 10:49:54;;;;;;;28.58;11.82;;;;;;;5.98;53.58;97918.94;4487510;32;20092;-80
2021/12/07 10:52:26;;;;;;;25.50;10.35;;;;;;;5.81;53.51;97921.50;4473041;32;20511;-80
2021/12/07 10:55:05;;;;;;;28.00;11.00;;;;;;;5.94;53.40;97916.53;4487267;32;20163;-80
2021/12/07 10:57:38;;;;;;;27.00;10.90;;;;;;;6.17;53.06;97910.19;4487229;32;20140;-80
2021/12/07 11:00:29;;;;;;;25.70;10.93;;;;;;;6.05;52.81;97909.88;4487122;32;20096;-80
2021/12/07 11:02:56;;;;;;;26.40;10.65;;;;;;;6.07;52.63;97908.03;4472844;32;20096;-80
2021/12/07 11:05:27;;;;;;;28.85;11.50;;;;;;;5.75;53.39;97909.59;4487111;32;20170;-80
2021/12/07 11:07:53;;;;;;;27.23;10.90;;;;;;;5.65;54.00;97910.97;4472813;32;20110;-80
2021/12/07 11:10:29;;;;;;;27.23;10.63;;;;;;;5.93;53.27;97904.37;4487147;32;20092;-80
2021/12/07 11:13:15;;;;;;;25.98;10.85;;;;;;;5.84;53.39;97911.75;4487235;32;20100;-80
2021/12/07 11:15:53;;;;;;;27.20;10.73;;;;;;;5.86;53.24;97909.06;4472679;32;20092;-80
2021/12/07 11:18:26;;;;;;;23.62;10.32;;;;;;;5.77;53.52;97909.53;4472733;32;20109;-80
2021/12/07 11:20:54;;;;;;;23.27;9.73;;;;;;;5.93;53.19;97905.25;4487036;32;20172;-80
2021/12/07 11:23:24;;;;;;;26.33;11.10;;;;;;;5.81;52.86;97904.06;4487028;32;20130;-80
2021/12/07 11:31:28;;;;;;;27.58;10.65;;;;;;;5.20;54.22;97897.44;4487049;32;20582;-80
2021/12/07 11:34:03;;;;;;;24.92;10.90;;;;;;;5.37;54.18;97903.59;4486952;32;20096;-80
2021/12/07 11:36:32;;;;;;;24.55;10.63;;;;;;;5.48;53.76;97907.38;4472674;32;20415;-80
2021/12/07 11:38:59;;;;;;;27.45;11.15;;;;;;;5.42;53.74;97904.25;4486915;32;20122;-80
2021/12/07 11:41:31;;;;;;;28.73;11.57;;;;;;;5.26;54.52;97906.75;4459554;32;20135;-80
2021/12/07 11:44:01;;;;;;;25.70;11.68;;;;;;;5.18;54.87;97912.31;4486780;32;20083;-80
2021/12/07 11:46:28;;;;;;;28.15;11.82;;;;;;;4.91;55.32;97922.28;4486479;32;20368;-80
2021/12/07 11:49:09;;;;;;;28.48;12.50;;;;;;;4.82;55.87;97920.91;4459574;32;20089;-80
2021/12/07 11:51:35;;;;;;;28.83;11.65;;;;;;;4.56;56.92;97926.44;4486568;32;20127;-80
2021/12/07 11:54:01;;;;;;;28.42;12.07;;;;;;;4.36;57.14;97922.94;4486663;32;20101;-80
2021/12/07 11:56:27;;;;;;;32.72;12.50;;;;;;;4.12;57.58;97924.88;4472430;32;20375;-79
2021/12/07 11:58:52;;;;;;;30.88;13.02;;;;;;;4.40;57.22;97923.66;4472355;32;20072;-80
2021/12/07 12:01:19;;;;;;;34.42;14.87;;;;;;;4.34;57.71;97930.00;4472370;32;20157;-79
2021/12/07 12:03:44;;;;;;;33.90;13.43;;;;;;;4.61;57.09;97925.31;4472424;32;20471;-79
2021/12/07 12:06:10;;;;;;;31.12;13.20;;;;;;;4.47;57.05;97923.34;4486497;32;20136;-80
2021/12/07 12:08:35;;;;;;;30.67;13.98;;;;;;;4.56;56.95;97923.84;4472140;32;20404;-79
2021/12/07 12:11:08;;;;;;;31.67;14.02;;;;;;;4.55;57.16;97929.97;4471482;32;20146;-80
2021/12/07 12:13:46;;;;;;;35.67;14.80;;;;;;;4.17;57.99;97928.09;4472226;32;20122;-80
2021/12/07 12:16:29;;;;;;;28.52;12.88;;;;;;;4.43;57.29;97919.16;4472391;32;20084;-80
2021/12/07 12:19:14;;;;;;;31.65;13.48;;;;;;;4.75;56.59;97918.66;4472118;32;20088;-80
2021/12/07 12:21:54;;;;;;;32.63;15.07;;;;;;;4.20;57.73;97921.94;4486315;32;20350;-80
2021/12/07 12:24:35;;;;;;;32.25;13.05;;;;;;;4.31;57.67;97923.16;4486370;32;20100;-80
2021/12/07 12:27:07;;;;;;;35.33;14.93;;;;;;;3.84;58.99;97920.78;4471993;32;20089;-80
2021/12/07 12:29:33;;;;;;;35.05;15.15;;;;;;;3.83;59.36;97928.69;4472025;32;20084;-80
2021/12/07 12:31:59;;;;;;;31.70;12.95;;;;;;;3.94;59.08;97924.72;4471973;32;20508;-80
2021/12/07 12:34:30;;;;;;;33.70;14.23;;;;;;;3.99;58.79;97928.87;4486211;32;20116;-80
2021/12/07 12:37:15;;;;;;;36.97;15.40;;;;;;;3.71;59.83;97930.88;4486152;32;20163;-80
2021/12/07 12:39:50;;;;;;;34.08;15.80;;;;;;;3.80;59.71;97926.19;4486094;32;20120;-80
2021/12/07 12:42:36;;;;;;;37.80;16.55;;;;;;;3.81;60.19;97935.72;4486070;32;20165;-80
2021/12/07 12:45:26;;;;;;;35.00;15.10;;;;;;;3.77;60.44;97945.41;4485943;32;20084;-80
2021/12/07 12:48:00;;;;;;;36.72;16.33;;;;;;;4.27;59.25;97941.63;4485925;32;20080;-80
2021/12/07 12:50:32;;;;;;;40.63;15.77;;;;;;;3.93;59.77;97943.03;4471579;32;20122;-80
2021/12/07 12:53:02;;;;;;;34.67;16.55;;;;;;;3.99;59.61;97944.53;4471552;32;20119;-80
2021/12/07 12:55:33;;;;;;;43.20;16.92;;;;;;;4.33;58.65;97946.56;4471736;32;20127;-80
2021/12/07 12:58:00;;;;;;;38.92;17.00;;;;;;;4.16;59.02;97947.28;4485846;32;20088;-80
2021/12/07 13:01:03;;;;;;;35.50;15.70;;;;;;;4.22;58.76;97946.16;4471564;32;20092;-80
2021/12/07 13:03:44;;;;;;;33.22;15.20;;;;;;;4.17;59.10;97954.16;4486120;32;20194;-80
2021/12/07 13:06:14;;;;;;;32.60;14.38;;;;;;;3.92;59.69;97955.22;4485712;32;20130;-80
2021/12/07 13:09:02;;;;;;;35.10;13.93;;;;;;;3.94;59.54;97960.38;4471657;32;20518;-80
2021/12/07 13:11:31;;;;;;;40.92;16.30;;;;;;;3.61;60.63;97959.94;4471426;32;20107;-80
2021/12/07 13:13:56;;;;;;;35.58;15.85;;;;;;;3.76;60.43;97968.91;4485574;32;20104;-80
2021/12/07 13:16:22;;;;;;;41.88;16.12;;;;;;;3.86;60.23;97965.87;4471164;32;20113;-80
2021/12/07 13:18:47;;;;;;;37.63;15.80;;;;;;;3.92;59.81;97963.03;4471145;32;20148;-80
2021/12/07 13:21:25;;;;;;;37.58;16.23;;;;;;;3.96;59.79;97960.28;4471113;32;20122;-80
2021/12/07 13:24:04;;;;;;;39.30;15.98;;;;;;;3.57;61.12;97956.59;4486706;32;20088;-80
2021/12/07 13:26:39;;;;;;;36.45;14.95;;;;;;;3.47;61.32;97952.69;4473485;32;20100;-80
2021/12/07 13:29:12;;;;;;;36.95;15.23;;;;;;;3.66;60.92;97951.03;4487981;32;20096;-80